sensor_id;sensor_type;location;lat;lon;timestamp;P1;durP1;ratioP1;P2;durP2;ratioP2
21546;SDS011;41275;51.912;4.388;2023-04-15T00:02:16;5.45;;;2.30;;
21546;SDS011;41275;51.912;4.388;2023-04-15T00:07:38;8.85;;;2.55;;
21546;SDS011;41275;51.912;4.388;2023-04-15T00:13:00;7.30;;;2.65;;
21546;SDS011;41275;51.912;4.388;2023-04-15T00:18:23;5.65;;;2.35;;
21546;SDS011;41275;51.912;4.388;2023-04-15T00:23:44;7.53;;;2.63;;
21546;SDS011;41275;51.912;4.388;2023-04-15T00:29:09;11.75;;;2.83;;
21546;SDS011;41275;51.912;4.388;2023-04-15T00:34:30;9.13;;;2.40;;
21546;SDS011;41275;51.912;4.388;2023-04-15T00:39:52;6.47;;;2.42;;
21546;SDS011;41275;51.912;4.388;2023-04-15T00:45:13;7.67;;;2.50;;
21546;SDS011;41275;51.912;4.388;2023-04-15T00:50:35;9.65;;;2.78;;
21546;SDS011;41275;51.912;4.388;2023-04-15T00:55:56;10.25;;;2.90;;
21546;SDS011;41275;51.912;4.388;2023-04-15T01:01:19;8.83;;;2.80;;
21546;SDS011;41275;51.912;4.388;2023-04-15T01:06:42;8.75;;;2.58;;
21546;SDS011;41275;51.912;4.388;2023-04-15T01:12:03;9.57;;;2.67;;
21546;SDS011;41275;51.912;4.388;2023-04-15T01:17:25;5.85;;;2.47;;
21546;SDS011;41275;51.912;4.388;2023-04-15T01:22:47;7.22;;;2.60;;
21546;SDS011;41275;51.912;4.388;2023-04-15T01:28:08;6.50;;;2.75;;
21546;SDS011;41275;51.912;4.388;2023-04-15T01:33:30;7.07;;;2.67;;
21546;SDS011;41275;51.912;4.388;2023-04-15T01:38:52;6.72;;;2.40;;
21546;SDS011;41275;51.912;4.388;2023-04-15T01:44:13;6.72;;;2.92;;
21546;SDS011;41275;51.912;4.388;2023-04-15T01:49:34;7.97;;;2.95;;
21546;SDS011;41275;51.912;4.388;2023-04-15T01:54:56;9.30;;;3.10;;
21546;SDS011;41275;51.912;4.388;2023-04-15T02:00:17;7.93;;;2.95;;
21546;SDS011;41275;51.912;4.388;2023-04-15T02:05:38;7.43;;;2.70;;
21546;SDS011;41275;51.912;4.388;2023-04-15T02:10:59;6.60;;;3.00;;
21546;SDS011;41275;51.912;4.388;2023-04-15T02:16:21;6.40;;;3.25;;
21546;SDS011;41275;51.912;4.388;2023-04-15T02:21:42;5.17;;;3.23;;
21546;SDS011;41275;51.912;4.388;2023-04-15T02:27:03;7.00;;;3.38;;
21546;SDS011;41275;51.912;4.388;2023-04-15T02:32:24;7.72;;;3.50;;
21546;SDS011;41275;51.912;4.388;2023-04-15T02:37:45;7.28;;;3.60;;
21546;SDS011;41275;51.912;4.388;2023-04-15T02:43:07;9.90;;;3.83;;
21546;SDS011;41275;51.912;4.388;2023-04-15T02:48:28;9.00;;;3.93;;
21546;SDS011;41275;51.912;4.388;2023-04-15T02:53:49;6.27;;;3.30;;
21546;SDS011;41275;51.912;4.388;2023-04-15T02:59:11;10.35;;;3.60;;
21546;SDS011;41275;51.912;4.388;2023-04-15T03:04:32;9.43;;;3.60;;
21546;SDS011;41275;51.912;4.388;2023-04-15T03:09:54;8.48;;;3.30;;
21546;SDS011;41275;51.912;4.388;2023-04-15T03:15:15;7.13;;;3.58;;
21546;SDS011;41275;51.912;4.388;2023-04-15T03:20:37;9.60;;;3.72;;
21546;SDS011;41275;51.912;4.388;2023-04-15T03:26:00;9.10;;;3.70;;
21546;SDS011;41275;51.912;4.388;2023-04-15T03:31:22;7.75;;;3.72;;
21546;SDS011;41275;51.912;4.388;2023-04-15T03:36:43;6.75;;;3.33;;
21546;SDS011;41275;51.912;4.388;2023-04-15T03:42:06;8.48;;;3.65;;
21546;SDS011;41275;51.912;4.388;2023-04-15T03:47:27;7.32;;;3.78;;
21546;SDS011;41275;51.912;4.388;2023-04-15T03:52:48;7.75;;;3.97;;
21546;SDS011;41275;51.912;4.388;2023-04-15T03:58:09;6.70;;;3.60;;
21546;SDS011;41275;51.912;4.388;2023-04-15T04:03:32;9.73;;;4.10;;
21546;SDS011;41275;51.912;4.388;2023-04-15T04:08:53;6.95;;;3.67;;
21546;SDS011;41275;51.912;4.388;2023-04-15T04:14:15;7.80;;;3.90;;
21546;SDS011;41275;51.912;4.388;2023-04-15T04:19:36;7.93;;;3.80;;
21546;SDS011;41275;51.912;4.388;2023-04-15T04:24:58;6.53;;;3.80;;
21546;SDS011;41275;51.912;4.388;2023-04-15T04:30:20;11.63;;;5.05;;
21546;SDS011;41275;51.912;4.388;2023-04-15T04:35:41;8.00;;;4.00;;
21546;SDS011;41275;51.912;4.388;2023-04-15T04:41:03;9.65;;;4.30;;
21546;SDS011;41275;51.912;4.388;2023-04-15T04:46:24;18.58;;;7.90;;
21546;SDS011;41275;51.912;4.388;2023-04-15T04:51:45;11.43;;;4.60;;
21546;SDS011;41275;51.912;4.388;2023-04-15T04:57:08;9.93;;;4.70;;
21546;SDS011;41275;51.912;4.388;2023-04-15T05:02:29;7.93;;;4.82;;
21546;SDS011;41275;51.912;4.388;2023-04-15T05:07:50;9.07;;;5.00;;
21546;SDS011;41275;51.912;4.388;2023-04-15T05:13:11;11.50;;;5.63;;
21546;SDS011;41275;51.912;4.388;2023-04-15T05:18:33;9.95;;;5.57;;
21546;SDS011;41275;51.912;4.388;2023-04-15T05:23:54;8.90;;;4.80;;
21546;SDS011;41275;51.912;4.388;2023-04-15T05:29:15;11.73;;;4.85;;
21546;SDS011;41275;51.912;4.388;2023-04-15T05:34:36;8.80;;;4.78;;
21546;SDS011;41275;51.912;4.388;2023-04-15T05:39:58;8.70;;;4.72;;
21546;SDS011;41275;51.912;4.388;2023-04-15T05:45:19;8.30;;;4.82;;
21546;SDS011;41275;51.912;4.388;2023-04-15T05:50:41;10.95;;;4.72;;
21546;SDS011;41275;51.912;4.388;2023-04-15T05:56:02;8.77;;;4.32;;
21546;SDS011;41275;51.912;4.388;2023-04-15T06:01:23;8.48;;;4.75;;
21546;SDS011;41275;51.912;4.388;2023-04-15T06:06:45;8.57;;;4.68;;
21546;SDS011;41275;51.912;4.388;2023-04-15T06:12:06;9.05;;;4.60;;
21546;SDS011;41275;51.912;4.388;2023-04-15T06:17:31;10.25;;;4.38;;
21546;SDS011;41275;51.912;4.388;2023-04-15T06:22:53;10.32;;;4.60;;
21546;SDS011;41275;51.912;4.388;2023-04-15T06:28:14;7.70;;;4.55;;
21546;SDS011;41275;51.912;4.388;2023-04-15T06:33:35;10.35;;;5.00;;
21546;SDS011;41275;51.912;4.388;2023-04-15T06:38:56;7.55;;;4.38;;
21546;SDS011;41275;51.912;4.388;2023-04-15T06:44:17;8.02;;;4.88;;
21546;SDS011;41275;51.912;4.388;2023-04-15T06:49:39;8.87;;;4.93;;
21546;SDS011;41275;51.912;4.388;2023-04-15T06:55:01;11.90;;;5.07;;
21546;SDS011;41275;51.912;4.388;2023-04-15T07:00:22;9.55;;;4.90;;
21546;SDS011;41275;51.912;4.388;2023-04-15T07:05:43;8.80;;;4.72;;
21546;SDS011;41275;51.912;4.388;2023-04-15T07:11:04;9.52;;;4.93;;
21546;SDS011;41275;51.912;4.388;2023-04-15T07:16:26;9.43;;;4.63;;
21546;SDS011;41275;51.912;4.388;2023-04-15T07:21:47;9.02;;;4.60;;
21546;SDS011;41275;51.912;4.388;2023-04-15T07:27:08;8.13;;;4.30;;
21546;SDS011;41275;51.912;4.388;2023-04-15T07:32:30;10.95;;;4.68;;
21546;SDS011;41275;51.912;4.388;2023-04-15T07:37:51;8.07;;;4.60;;
21546;SDS011;41275;51.912;4.388;2023-04-15T07:43:12;7.00;;;4.15;;
21546;SDS011;41275;51.912;4.388;2023-04-15T07:48:34;9.23;;;4.45;;
21546;SDS011;41275;51.912;4.388;2023-04-15T07:53:55;7.68;;;4.53;;
21546;SDS011;41275;51.912;4.388;2023-04-15T07:59:17;7.97;;;4.37;;
21546;SDS011;41275;51.912;4.388;2023-04-15T08:04:58;7.95;;;4.43;;
21546;SDS011;41275;51.912;4.388;2023-04-15T08:10:19;6.37;;;4.20;;
21546;SDS011;41275;51.912;4.388;2023-04-15T08:15:41;7.50;;;4.53;;
21546;SDS011;41275;51.912;4.388;2023-04-15T08:21:02;8.48;;;4.55;;
21546;SDS011;41275;51.912;4.388;2023-04-15T08:26:24;9.05;;;4.50;;
21546;SDS011;41275;51.912;4.388;2023-04-15T08:31:46;8.65;;;4.78;;
21546;SDS011;41275;51.912;4.388;2023-04-15T08:37:07;6.15;;;4.18;;
21546;SDS011;41275;51.912;4.388;2023-04-15T08:42:34;7.47;;;4.70;;
21546;SDS011;41275;51.912;4.388;2023-04-15T08:47:58;8.95;;;5.07;;
21546;SDS011;41275;51.912;4.388;2023-04-15T08:53:22;9.18;;;4.57;;
21546;SDS011;41275;51.912;4.388;2023-04-15T08:58:44;7.47;;;4.65;;
21546;SDS011;41275;51.912;4.388;2023-04-15T09:04:06;8.57;;;4.93;;
21546;SDS011;41275;51.912;4.388;2023-04-15T09:09:28;8.80;;;4.97;;
21546;SDS011;41275;51.912;4.388;2023-04-15T09:14:49;7.73;;;5.03;;
21546;SDS011;41275;51.912;4.388;2023-04-15T09:20:14;10.07;;;5.72;;
21546;SDS011;41275;51.912;4.388;2023-04-15T09:25:38;8.38;;;5.13;;
21546;SDS011;41275;51.912;4.388;2023-04-15T09:31:02;8.47;;;4.80;;
21546;SDS011;41275;51.912;4.388;2023-04-15T09:36:23;7.70;;;4.50;;
21546;SDS011;41275;51.912;4.388;2023-04-15T09:42:07;9.13;;;4.38;;
21546;SDS011;41275;51.912;4.388;2023-04-15T09:47:29;9.93;;;3.92;;
21546;SDS011;41275;51.912;4.388;2023-04-15T09:52:51;8.35;;;4.00;;
21546;SDS011;41275;51.912;4.388;2023-04-15T10:03:40;5.07;;;2.30;;
21546;SDS011;41275;51.912;4.388;2023-04-15T10:09:02;5.68;;;2.38;;
21546;SDS011;41275;51.912;4.388;2023-04-15T10:14:24;7.35;;;2.40;;
21546;SDS011;41275;51.912;4.388;2023-04-15T10:19:48;4.37;;;1.80;;
21546;SDS011;41275;51.912;4.388;2023-04-15T10:25:10;5.10;;;2.10;;
21546;SDS011;41275;51.912;4.388;2023-04-15T10:30:32;3.83;;;1.80;;
21546;SDS011;41275;51.912;4.388;2023-04-15T10:35:53;5.05;;;1.63;;
21546;SDS011;41275;51.912;4.388;2023-04-15T10:41:17;2.77;;;1.67;;
21546;SDS011;41275;51.912;4.388;2023-04-15T10:46:45;4.83;;;1.70;;
21546;SDS011;41275;51.912;4.388;2023-04-15T10:52:07;4.13;;;1.70;;
21546;SDS011;41275;51.912;4.388;2023-04-15T10:57:33;2.63;;;1.30;;
21546;SDS011;41275;51.912;4.388;2023-04-15T11:02:56;4.68;;;1.80;;
21546;SDS011;41275;51.912;4.388;2023-04-15T11:14:15;6.10;;;1.52;;
21546;SDS011;41275;51.912;4.388;2023-04-15T11:19:37;3.72;;;1.70;;
21546;SDS011;41275;51.912;4.388;2023-04-15T11:24:58;3.87;;;1.93;;
21546;SDS011;41275;51.912;4.388;2023-04-15T11:30:23;4.82;;;2.13;;
21546;SDS011;41275;51.912;4.388;2023-04-15T11:35:46;4.83;;;2.13;;
21546;SDS011;41275;51.912;4.388;2023-04-15T11:41:07;6.47;;;2.10;;
21546;SDS011;41275;51.912;4.388;2023-04-15T11:46:29;4.90;;;2.57;;
21546;SDS011;41275;51.912;4.388;2023-04-15T11:51:51;4.80;;;1.77;;
21546;SDS011;41275;51.912;4.388;2023-04-15T11:57:12;3.60;;;1.60;;
21546;SDS011;41275;51.912;4.388;2023-04-15T12:02:35;3.87;;;1.60;;
21546;SDS011;41275;51.912;4.388;2023-04-15T12:07:57;4.28;;;1.65;;
21546;SDS011;41275;51.912;4.388;2023-04-15T12:13:19;4.03;;;1.70;;
21546;SDS011;41275;51.912;4.388;2023-04-15T12:18:40;4.22;;;1.90;;
21546;SDS011;41275;51.912;4.388;2023-04-15T12:24:07;4.00;;;1.93;;
21546;SDS011;41275;51.912;4.388;2023-04-15T12:29:30;4.75;;;1.88;;
21546;SDS011;41275;51.912;4.388;2023-04-15T12:34:52;4.60;;;2.17;;
21546;SDS011;41275;51.912;4.388;2023-04-15T12:40:18;4.72;;;2.00;;
21546;SDS011;41275;51.912;4.388;2023-04-15T12:45:39;5.10;;;2.00;;
21546;SDS011;41275;51.912;4.388;2023-04-15T12:51:01;4.50;;;1.90;;
21546;SDS011;41275;51.912;4.388;2023-04-15T12:56:22;6.60;;;2.08;;
21546;SDS011;41275;51.912;4.388;2023-04-15T13:01:44;5.72;;;2.30;;
21546;SDS011;41275;51.912;4.388;2023-04-15T13:07:06;4.75;;;2.05;;
21546;SDS011;41275;51.912;4.388;2023-04-15T13:12:27;5.93;;;2.15;;
21546;SDS011;41275;51.912;4.388;2023-04-15T13:17:50;4.40;;;1.80;;
21546;SDS011;41275;51.912;4.388;2023-04-15T13:23:11;4.40;;;1.55;;
21546;SDS011;41275;51.912;4.388;2023-04-15T13:28:33;3.80;;;1.48;;
21546;SDS011;41275;51.912;4.388;2023-04-15T13:33:55;2.80;;;1.20;;
21546;SDS011;41275;51.912;4.388;2023-04-15T13:39:16;29.98;;;16.38;;
21546;SDS011;41275;51.912;4.388;2023-04-15T13:44:38;3.08;;;1.20;;
21546;SDS011;41275;51.912;4.388;2023-04-15T13:50:15;5.75;;;1.48;;
21546;SDS011;41275;51.912;4.388;2023-04-15T13:55:36;3.53;;;1.40;;
21546;SDS011;41275;51.912;4.388;2023-04-15T14:01:01;4.80;;;1.40;;
21546;SDS011;41275;51.912;4.388;2023-04-15T14:06:23;4.30;;;1.60;;
21546;SDS011;41275;51.912;4.388;2023-04-15T14:11:44;5.53;;;1.20;;
21546;SDS011;41275;51.912;4.388;2023-04-15T14:17:05;7.38;;;1.45;;
21546;SDS011;41275;51.912;4.388;2023-04-15T14:22:27;6.22;;;1.80;;
21546;SDS011;41275;51.912;4.388;2023-04-15T14:27:48;5.35;;;2.25;;
21546;SDS011;41275;51.912;4.388;2023-04-15T14:33:10;4.05;;;1.40;;
21546;SDS011;41275;51.912;4.388;2023-04-15T14:38:35;5.63;;;1.50;;
21546;SDS011;41275;51.912;4.388;2023-04-15T14:43:59;8.48;;;2.10;;
21546;SDS011;41275;51.912;4.388;2023-04-15T14:49:21;6.88;;;1.70;;
21546;SDS011;41275;51.912;4.388;2023-04-15T14:54:42;4.15;;;1.40;;
21546;SDS011;41275;51.912;4.388;2023-04-15T15:00:04;5.95;;;1.65;;
21546;SDS011;41275;51.912;4.388;2023-04-15T15:05:27;5.28;;;1.58;;
21546;SDS011;41275;51.912;4.388;2023-04-15T15:10:48;4.57;;;1.40;;
21546;SDS011;41275;51.912;4.388;2023-04-15T15:16:09;4.75;;;1.80;;
21546;SDS011;41275;51.912;4.388;2023-04-15T15:21:30;7.20;;;1.80;;
21546;SDS011;41275;51.912;4.388;2023-04-15T15:26:52;7.33;;;1.70;;
21546;SDS011;41275;51.912;4.388;2023-04-15T15:32:13;6.07;;;1.53;;
21546;SDS011;41275;51.912;4.388;2023-04-15T15:37:34;5.93;;;1.48;;
21546;SDS011;41275;51.912;4.388;2023-04-15T15:42:56;6.90;;;1.95;;
21546;SDS011;41275;51.912;4.388;2023-04-15T15:48:17;7.40;;;2.10;;
21546;SDS011;41275;51.912;4.388;2023-04-15T15:53:38;5.88;;;1.80;;
21546;SDS011;41275;51.912;4.388;2023-04-15T15:58:59;4.80;;;1.60;;
21546;SDS011;41275;51.912;4.388;2023-04-15T16:04:21;5.93;;;1.80;;
21546;SDS011;41275;51.912;4.388;2023-04-15T16:09:42;6.60;;;2.05;;
21546;SDS011;41275;51.912;4.388;2023-04-15T16:15:04;5.35;;;1.80;;
21546;SDS011;41275;51.912;4.388;2023-04-15T16:20:25;9.50;;;2.65;;
21546;SDS011;41275;51.912;4.388;2023-04-15T16:25:48;6.43;;;2.00;;
21546;SDS011;41275;51.912;4.388;2023-04-15T16:31:10;3.83;;;1.80;;
21546;SDS011;41275;51.912;4.388;2023-04-15T16:36:35;5.78;;;1.35;;
21546;SDS011;41275;51.912;4.388;2023-04-15T16:41:56;5.90;;;1.70;;
21546;SDS011;41275;51.912;4.388;2023-04-15T16:47:17;6.65;;;1.92;;
21546;SDS011;41275;51.912;4.388;2023-04-15T16:52:38;5.40;;;1.33;;
21546;SDS011;41275;51.912;4.388;2023-04-15T16:58:00;7.40;;;1.58;;
21546;SDS011;41275;51.912;4.388;2023-04-15T17:03:21;7.43;;;1.67;;
21546;SDS011;41275;51.912;4.388;2023-04-15T17:08:42;4.90;;;1.52;;
21546;SDS011;41275;51.912;4.388;2023-04-15T17:14:04;7.00;;;1.35;;
21546;SDS011;41275;51.912;4.388;2023-04-15T17:19:26;4.32;;;1.20;;
21546;SDS011;41275;51.912;4.388;2023-04-15T17:24:48;7.07;;;1.33;;
21546;SDS011;41275;51.912;4.388;2023-04-15T17:30:09;5.85;;;1.92;;
21546;SDS011;41275;51.912;4.388;2023-04-15T17:35:30;3.63;;;0.97;;
21546;SDS011;41275;51.912;4.388;2023-04-15T17:40:52;8.20;;;1.50;;
21546;SDS011;41275;51.912;4.388;2023-04-15T17:46:13;5.78;;;1.10;;
21546;SDS011;41275;51.912;4.388;2023-04-15T17:51:34;3.60;;;1.10;;
21546;SDS011;41275;51.912;4.388;2023-04-15T17:56:55;4.23;;;1.20;;
21546;SDS011;41275;51.912;4.388;2023-04-15T18:02:17;7.97;;;1.90;;
21546;SDS011;41275;51.912;4.388;2023-04-15T18:07:38;8.10;;;1.27;;
21546;SDS011;41275;51.912;4.388;2023-04-15T18:13:00;7.35;;;1.30;;
21546;SDS011;41275;51.912;4.388;2023-04-15T18:18:23;4.77;;;1.03;;
21546;SDS011;41275;51.912;4.388;2023-04-15T18:23:44;6.32;;;1.40;;
21546;SDS011;41275;51.912;4.388;2023-04-15T18:29:05;4.93;;;1.23;;
21546;SDS011;41275;51.912;4.388;2023-04-15T18:34:27;8.75;;;1.50;;
21546;SDS011;41275;51.912;4.388;2023-04-15T18:39:50;8.63;;;1.30;;
21546;SDS011;41275;51.912;4.388;2023-04-15T18:45:11;8.43;;;1.67;;
21546;SDS011;41275;51.912;4.388;2023-04-15T18:50:32;7.30;;;1.23;;
21546;SDS011;41275;51.912;4.388;2023-04-15T18:55:53;5.13;;;1.00;;
21546;SDS011;41275;51.912;4.388;2023-04-15T19:01:16;8.23;;;1.70;;
21546;SDS011;41275;51.912;4.388;2023-04-15T19:06:37;8.95;;;1.23;;
21546;SDS011;41275;51.912;4.388;2023-04-15T19:11:58;5.28;;;1.10;;
21546;SDS011;41275;51.912;4.388;2023-04-15T19:17:19;7.63;;;1.55;;
21546;SDS011;41275;51.912;4.388;2023-04-15T19:22:40;8.57;;;1.15;;
21546;SDS011;41275;51.912;4.388;2023-04-15T19:28:03;8.80;;;1.88;;
21546;SDS011;41275;51.912;4.388;2023-04-15T19:33:24;7.20;;;1.80;;
21546;SDS011;41275;51.912;4.388;2023-04-15T19:38:50;6.43;;;0.90;;
21546;SDS011;41275;51.912;4.388;2023-04-15T19:44:11;6.65;;;1.08;;
21546;SDS011;41275;51.912;4.388;2023-04-15T19:49:33;4.10;;;1.30;;
21546;SDS011;41275;51.912;4.388;2023-04-15T19:54:54;8.13;;;1.20;;
21546;SDS011;41275;51.912;4.388;2023-04-15T20:00:15;9.13;;;1.17;;
21546;SDS011;41275;51.912;4.388;2023-04-15T20:05:36;7.00;;;1.27;;
21546;SDS011;41275;51.912;4.388;2023-04-15T20:10:58;5.90;;;1.00;;
21546;SDS011;41275;51.912;4.388;2023-04-15T20:16:20;6.80;;;1.20;;
21546;SDS011;41275;51.912;4.388;2023-04-15T20:21:42;5.88;;;1.17;;
21546;SDS011;41275;51.912;4.388;2023-04-15T20:27:03;8.65;;;1.20;;
21546;SDS011;41275;51.912;4.388;2023-04-15T20:32:24;8.18;;;1.25;;
21546;SDS011;41275;51.912;4.388;2023-04-15T20:37:47;7.00;;;0.90;;
21546;SDS011;41275;51.912;4.388;2023-04-15T20:43:09;7.18;;;1.08;;
21546;SDS011;41275;51.912;4.388;2023-04-15T20:48:30;4.32;;;1.08;;
21546;SDS011;41275;51.912;4.388;2023-04-15T20:53:51;5.20;;;0.87;;
21546;SDS011;41275;51.912;4.388;2023-04-15T20:59:12;5.77;;;1.00;;
21546;SDS011;41275;51.912;4.388;2023-04-15T21:04:33;5.93;;;0.83;;
21546;SDS011;41275;51.912;4.388;2023-04-15T21:09:55;4.45;;;0.73;;
21546;SDS011;41275;51.912;4.388;2023-04-15T21:15:16;3.55;;;1.20;;
21546;SDS011;41275;51.912;4.388;2023-04-15T21:20:38;7.13;;;1.13;;
21546;SDS011;41275;51.912;4.388;2023-04-15T21:25:59;2.63;;;0.55;;
21546;SDS011;41275;51.912;4.388;2023-04-15T21:31:20;2.47;;;0.63;;
21546;SDS011;41275;51.912;4.388;2023-04-15T21:36:41;4.63;;;0.70;;
21546;SDS011;41275;51.912;4.388;2023-04-15T21:42:03;6.55;;;0.82;;
21546;SDS011;41275;51.912;4.388;2023-04-15T21:47:24;5.20;;;0.82;;
21546;SDS011;41275;51.912;4.388;2023-04-15T21:52:45;6.43;;;0.70;;
21546;SDS011;41275;51.912;4.388;2023-04-15T21:58:06;3.40;;;0.50;;
21546;SDS011;41275;51.912;4.388;2023-04-15T22:03:28;7.25;;;0.80;;
21546;SDS011;41275;51.912;4.388;2023-04-15T22:08:53;6.73;;;0.80;;
21546;SDS011;41275;51.912;4.388;2023-04-15T22:14:14;5.80;;;1.05;;
21546;SDS011;41275;51.912;4.388;2023-04-15T22:19:36;8.27;;;1.15;;
21546;SDS011;41275;51.912;4.388;2023-04-15T22:24:57;2.50;;;0.70;;
21546;SDS011;41275;51.912;4.388;2023-04-15T22:30:18;4.30;;;0.90;;
21546;SDS011;41275;51.912;4.388;2023-04-15T22:35:39;3.60;;;0.70;;
21546;SDS011;41275;51.912;4.388;2023-04-15T22:41:00;6.30;;;0.60;;
21546;SDS011;41275;51.912;4.388;2023-04-15T22:46:22;4.63;;;1.07;;
21546;SDS011;41275;51.912;4.388;2023-04-15T22:51:43;6.23;;;0.90;;
21546;SDS011;41275;51.912;4.388;2023-04-15T22:57:04;4.60;;;0.60;;
21546;SDS011;41275;51.912;4.388;2023-04-15T23:02:25;6.53;;;1.00;;
21546;SDS011;41275;51.912;4.388;2023-04-15T23:07:46;2.53;;;0.70;;
21546;SDS011;41275;51.912;4.388;2023-04-15T23:13:07;7.30;;;0.93;;
21546;SDS011;41275;51.912;4.388;2023-04-15T23:18:29;3.03;;;0.75;;
21546;SDS011;41275;51.912;4.388;2023-04-15T23:23:50;6.10;;;1.00;;
21546;SDS011;41275;51.912;4.388;2023-04-15T23:29:11;3.30;;;0.80;;
21546;SDS011;41275;51.912;4.388;2023-04-15T23:34:32;6.37;;;0.90;;
21546;SDS011;41275;51.912;4.388;2023-04-15T23:39:54;4.80;;;0.80;;
21546;SDS011;41275;51.912;4.388;2023-04-15T23:45:15;4.82;;;1.10;;
21546;SDS011;41275;51.912;4.388;2023-04-15T23:50:36;8.68;;;1.13;;
21546;SDS011;41275;51.912;4.388;2023-04-15T23:55:57;4.72;;;1.23;;
